CheckWX is a tool to help pilots better visualize weather data.  It is not intended as a substitute for an official pre-flight weather briefing.

17:58:00 UTC

KILG METAR
New Castle Airport
Wilmington, Delaware, USA
Current

1 hour ago

KILG 171651Z 28021G34KT 10SM SCT050 17/04 A2952 RMK AO2 PK WND 29041/1612 SLP996 T01670039
Observed
Oct-17 @ 16:51 UTC
Wind
  • 280° at 21 KTS
  • Gusting to 34 KTS
Visibility
10 SM
Flight Rules
VFR
Cloud Levels
  • Scattered at 5,000' AGL
Temperature
17°C / 63°F
Dewpoint
C / 39°F
Humidity
42%
Altimeter
29.52" Hg
Pressure
999.62 hPa
Previous

2 hours ago

KILG 171551Z 30027G34KT 10SM BKN055 15/03 A2953 RMK AO2 PK WND 29034/1551 SLP998 T01500033
Observed
Oct-17 @ 15:51 UTC
Wind
  • 300° at 27 KTS
  • Gusting to 34 KTS
Visibility
10 SM
Flight Rules
VFR
Cloud Levels
  • Broken at 5,500' AGL
Temperature
15°C / 59°F
Dewpoint
C / 37°F
Humidity
45%
Altimeter
29.53" Hg
Pressure
1000.02 hPa
Previous

3 hours ago

KILG 171451Z 28020G33KT 10SM BKN055 13/04 A2952 RMK AO2 PK WND 27035/1417 SLP995 T01330039 51006
Observed
Oct-17 @ 14:51 UTC
Wind
  • 280° at 20 KTS
  • Gusting to 33 KTS
Visibility
10 SM
Flight Rules
VFR
Cloud Levels
  • Broken at 5,500' AGL
Temperature
13°C / 55°F
Dewpoint
C / 39°F
Humidity
55%
Altimeter
29.52" Hg
Pressure
999.62 hPa